Time;durP1;ratioP1;P1;durP2;ratioP2;P2;SDS_P1;SDS_P2;PMS_P1;PMS_P2;Temp;Humidity;BMP_temperature;BMP_pressure;BME280_temperature;BME280_humidity;BME280_pressure;Samples;Min_cycle;Max_cycle;Signal;HPM_P1;HPM_P2
2023/08/01 00:00:31;;;;;;;0.93;0.93;;;;;;;19.69;68.95;94703.78;4333642;32;20256;-64
2023/08/01 00:02:57;;;;;;;0.67;0.60;;;;;;;19.78;67.67;94693.47;4341716;32;20185;-64
2023/08/01 00:05:22;;;;;;;0.67;0.67;;;;;;;19.77;68.84;94691.16;4340047;32;20225;-64
2023/08/01 00:07:47;;;;;;;0.37;0.37;;;;;;;19.77;67.96;94681.16;4351515;32;20197;-64
2023/08/01 00:10:13;;;;;;;0.77;0.77;;;;;;;19.78;67.20;94677.34;4336420;32;20199;-64
2023/08/01 00:12:38;;;;;;;3.00;0.73;;;;;;;19.83;66.26;94679.72;4340693;32;20192;-64
2023/08/01 00:15:04;;;;;;;0.90;0.90;;;;;;;19.84;66.22;94667.03;4352932;32;20232;-64
2023/08/01 00:17:29;;;;;;;0.60;0.60;;;;;;;19.91;65.94;94664.41;4341209;32;20190;-64
2023/08/01 00:19:55;;;;;;;0.60;0.60;;;;;;;19.89;65.43;94664.78;4357356;32;20264;-64
2023/08/01 00:22:20;;;;;;;0.73;0.73;;;;;;;19.92;65.62;94654.41;4346963;32;20186;-64
2023/08/01 00:24:47;;;;;;;0.40;0.40;;;;;;;19.94;65.25;94652.13;4347533;32;20189;-64
2023/08/01 00:27:13;;;;;;;0.47;0.47;;;;;;;19.91;65.52;94653.66;4339115;32;20180;-64
2023/08/01 00:29:38;;;;;;;1.33;1.00;;;;;;;19.89;65.65;94647.84;4336862;32;20200;-64
2023/08/01 00:32:04;;;;;;;1.20;0.97;;;;;;;19.81;66.00;94652.38;4331505;32;20227;-64
2023/08/01 00:34:29;;;;;;;1.03;1.03;;;;;;;19.80;65.86;94637.38;4333808;32;20185;-64
2023/08/01 00:36:54;;;;;;;0.37;0.37;;;;;;;19.81;66.43;94633.53;4340256;32;20227;-64
2023/08/01 00:39:20;;;;;;;0.47;0.47;;;;;;;19.82;66.25;94624.31;4333040;32;20186;-64
2023/08/01 00:41:45;;;;;;;1.10;1.10;;;;;;;19.82;66.07;94618.16;4348601;32;20217;-64
2023/08/01 00:44:10;;;;;;;0.40;0.40;;;;;;;19.80;66.73;94617.75;4355936;32;20228;-64
2023/08/01 00:46:36;;;;;;;0.67;0.67;;;;;;;19.83;66.58;94614.31;4354956;32;20173;-64
2023/08/01 00:49:02;;;;;;;1.27;0.60;;;;;;;19.82;67.31;94613.53;4351666;32;20279;-64
2023/08/01 00:51:30;;;;;;;0.70;0.60;;;;;;;19.88;67.22;94611.31;4342837;32;20292;-64
2023/08/01 00:53:55;;;;;;;0.70;0.70;;;;;;;19.78;67.17;94595.81;4347210;32;20287;-64
2023/08/01 00:56:20;;;;;;;0.37;0.37;;;;;;;19.85;66.92;94582.41;4350808;32;20193;-64
2023/08/01 00:58:46;;;;;;;0.60;0.60;;;;;;;19.88;66.78;94585.16;4348098;32;20248;-64
2023/08/01 01:01:11;;;;;;;0.80;0.80;;;;;;;19.92;67.09;94581.72;4350358;32;20197;-64
2023/08/01 01:03:37;;;;;;;0.50;0.50;;;;;;;19.84;67.66;94583.56;4334744;32;20223;-64
2023/08/01 01:06:24;;;;;;;0.37;0.37;;;;;;;19.87;67.53;94588.22;4335713;32;20193;-64
2023/08/01 01:08:49;;;;;;;0.50;0.50;;;;;;;19.85;67.70;94580.50;4338829;32;20190;-65
2023/08/01 01:11:14;;;;;;;0.30;0.30;;;;;;;19.86;67.66;94586.66;4348939;32;20336;-64
2023/08/01 01:13:40;;;;;;;0.90;0.87;;;;;;;19.80;68.21;94578.12;4339497;32;20272;-64
2023/08/01 01:16:05;;;;;;;0.47;0.47;;;;;;;19.81;67.93;94574.31;4337773;32;20197;-64
2023/08/01 01:18:31;;;;;;;4.23;1.50;;;;;;;19.79;67.86;94568.50;4335433;32;20185;-64
2023/08/01 01:20:56;;;;;;;0.40;0.40;;;;;;;19.75;68.12;94570.41;4340500;32;20255;-64
2023/08/01 01:23:22;;;;;;;1.17;1.17;;;;;;;19.78;67.89;94561.59;4347341;32;20303;-64
2023/08/01 01:25:51;;;;;;;6.03;0.90;;;;;;;19.67;68.97;94551.87;4333108;32;20186;-64
2023/08/01 01:28:17;;;;;;;0.57;0.57;;;;;;;19.74;68.26;94543.87;4340569;32;20189;-64
2023/08/01 01:30:44;;;;;;;0.90;0.90;;;;;;;19.74;68.35;94543.87;4350605;32;20198;-65
2023/08/01 01:33:10;;;;;;;0.87;0.77;;;;;;;19.75;67.95;94543.47;4354319;32;20192;-64
2023/08/01 01:35:36;;;;;;;0.43;0.43;;;;;;;19.80;68.13;94550.44;4350775;32;20214;-64
2023/08/01 01:38:05;;;;;;;1.50;0.93;;;;;;;19.80;68.36;94545.06;4345090;32;20255;-64
2023/08/01 01:40:31;;;;;;;0.97;0.97;;;;;;;19.77;68.25;94546.56;4342563;32;20200;-64
2023/08/01 01:42:58;;;;;;;0.30;0.30;;;;;;;19.82;67.98;94548.16;4347549;32;20247;-64
2023/08/01 01:45:24;;;;;;;0.70;0.70;;;;;;;19.79;67.99;94541.59;4343521;32;20208;-64
2023/08/01 01:47:49;;;;;;;0.97;0.97;;;;;;;19.70;68.37;94545.75;4351581;32;20181;-64
2023/08/01 01:50:14;;;;;;;0.50;0.50;;;;;;;19.71;68.44;94541.91;4344034;32;20264;-65
2023/08/01 01:52:40;;;;;;;0.60;0.60;;;;;;;19.79;68.11;94536.22;4337538;32;20220;-65
2023/08/01 01:55:05;;;;;;;1.13;1.13;;;;;;;19.72;68.33;94522.72;4337990;32;20196;-64
2023/08/01 01:57:31;;;;;;;0.80;0.80;;;;;;;19.77;68.38;94529.66;4351722;32;20217;-64
2023/08/01 01:59:56;;;;;;;1.00;0.80;;;;;;;19.75;69.43;94524.62;4346403;32;20168;-64
2023/08/01 02:02:21;;;;;;;0.63;0.63;;;;;;;19.73;70.46;94521.56;4347133;32;20296;-65
2023/08/01 02:04:48;;;;;;;1.03;1.03;;;;;;;19.67;72.44;94519.56;4347616;32;20240;-65
2023/08/01 02:07:14;;;;;;;1.10;1.10;;;;;;;19.66;72.80;94513.41;4337109;32;20185;-64
2023/08/01 02:09:39;;;;;;;0.87;0.77;;;;;;;19.65;73.73;94500.31;4334189;32;20200;-64
2023/08/01 02:12:05;;;;;;;0.70;0.70;;;;;;;19.64;73.04;94499.56;4341264;32;20197;-64
2023/08/01 02:14:30;;;;;;;0.57;0.57;;;;;;;19.61;74.03;94488.75;4333577;32;20307;-64
2023/08/01 02:16:56;;;;;;;0.70;0.70;;;;;;;19.54;74.49;94492.13;4352338;32;20196;-64
2023/08/01 02:19:21;;;;;;;1.00;1.00;;;;;;;19.50;75.11;94491.34;4341281;32;20212;-64
2023/08/01 02:21:46;;;;;;;0.87;0.87;;;;;;;19.55;74.74;94491.00;4358085;32;20235;-64
2023/08/01 02:24:12;;;;;;;1.77;1.40;;;;;;;19.56;74.08;94481.78;4356219;32;20219;-64
2023/08/01 02:26:37;;;;;;;0.97;0.97;;;;;;;19.56;74.45;94476.41;4340326;32;20224;-64
2023/08/01 02:29:02;;;;;;;1.50;1.40;;;;;;;19.59;74.24;94464.91;4340149;32;20177;-64
2023/08/01 02:31:28;;;;;;;4.63;0.70;;;;;;;19.61;74.75;94461.84;4340255;32;20180;-64
2023/08/01 02:33:53;;;;;;;0.80;0.80;;;;;;;19.60;74.20;94458.38;4345825;32;20172;-64
2023/08/01 02:36:18;;;;;;;0.53;0.53;;;;;;;19.58;74.21;94466.03;4334573;32;20182;-64
2023/08/01 02:38:44;;;;;;;0.50;0.50;;;;;;;19.59;74.13;94456.81;4349052;32;20182;-64
2023/08/01 02:41:09;;;;;;;0.70;0.70;;;;;;;19.58;73.64;94463.34;4335566;32;20259;-65
2023/08/01 02:43:36;;;;;;;0.60;0.60;;;;;;;19.60;73.57;94465.69;4342071;32;20185;-64
2023/08/01 02:46:01;;;;;;;0.47;0.47;;;;;;;19.65;73.23;94468.03;4347665;32;20300;-64
2023/08/01 02:48:27;;;;;;;0.70;0.60;;;;;;;19.62;73.57;94464.16;4344217;32;20192;-64
2023/08/01 02:50:52;;;;;;;0.53;0.53;;;;;;;19.61;73.28;94453.75;4344136;32;20173;-64
2023/08/01 02:53:17;;;;;;;0.70;0.70;;;;;;;19.59;73.56;94459.53;4343968;32;20193;-65
2023/08/01 02:55:46;;;;;;;0.50;0.50;;;;;;;19.67;73.44;94469.22;4334562;32;20193;-64
2023/08/01 02:58:11;;;;;;;1.10;1.00;;;;;;;19.61;73.62;94464.53;4334806;32;20228;-64
2023/08/01 03:00:40;;;;;;;1.27;1.20;;;;;;;19.61;73.98;94468.00;4333622;32;20227;-64
2023/08/01 03:03:06;;;;;;;0.50;0.50;;;;;;;19.58;73.84;94474.13;4337666;32;20200;-64
2023/08/01 03:05:31;;;;;;;0.40;0.40;;;;;;;19.62;73.79;94479.53;4350791;32;20225;-64
2023/08/01 03:07:57;;;;;;;0.60;0.60;;;;;;;19.60;74.39;94476.44;4340095;32;20177;-64
2023/08/01 03:10:23;;;;;;;0.43;0.43;;;;;;;19.56;74.20;94490.63;4344330;32;20196;-64
2023/08/01 03:12:48;;;;;;;0.87;0.87;;;;;;;19.55;74.59;94486.38;4351719;32;20222;-64
2023/08/01 03:15:14;;;;;;;0.90;0.90;;;;;;;19.39;75.23;94493.91;4337954;32;20218;-64
2023/08/01 03:17:39;;;;;;;1.50;1.40;;;;;;;19.42;76.08;94482.41;4332036;32;20238;-64
2023/08/01 03:20:10;;;;;;;0.33;0.33;;;;;;;19.41;76.39;94474.69;4317180;32;20186;-64
2023/08/01 03:22:36;;;;;;;0.73;0.73;;;;;;;19.41;78.41;94474.69;4338289;32;20211;-64
2023/08/01 03:25:07;;;;;;;0.37;0.37;;;;;;;19.32;78.75;94466.94;4327563;32;20312;-65
2023/08/01 03:27:33;;;;;;;1.17;1.17;;;;;;;19.37;77.71;94468.50;4329480;32;20227;-64
2023/08/01 03:29:58;;;;;;;0.67;0.67;;;;;;;19.36;77.51;94473.13;4318291;32;20201;-65
2023/08/01 03:32:23;;;;;;;1.00;1.00;;;;;;;19.36;78.01;94481.19;4320694;32;20194;-64
2023/08/01 03:34:49;;;;;;;0.80;0.80;;;;;;;19.27;78.71;94475.34;4333013;32;20182;-64
2023/08/01 03:37:14;;;;;;;1.40;1.10;;;;;;;19.15;78.50;94481.75;4337589;32;20328;-64
2023/08/01 03:39:40;;;;;;;0.80;0.80;;;;;;;19.21;78.89;94476.81;4333938;32;20223;-65
2023/08/01 03:42:05;;;;;;;1.10;1.10;;;;;;;19.14;79.23;94477.50;4322305;32;20209;-65
2023/08/01 03:44:32;;;;;;;0.47;0.47;;;;;;;19.16;79.12;94482.50;4322137;32;20259;-64
2023/08/01 03:46:57;;;;;;;1.27;1.27;;;;;;;19.20;79.10;94486.03;4328740;32;20235;-64
2023/08/01 03:49:22;;;;;;;0.90;0.87;;;;;;;19.16;79.54;94488.66;4343355;32;20185;-64
2023/08/01 03:51:48;;;;;;;6.00;1.80;;;;;;;19.19;79.67;94484.47;4337940;32;20240;-64
2023/08/01 03:54:13;;;;;;;0.93;0.93;;;;;;;19.17;79.73;94497.50;4318993;32;20186;-64
2023/08/01 03:56:42;;;;;;;1.00;0.97;;;;;;;19.15;79.85;94480.97;4329414;32;20182;-64
2023/08/01 03:59:07;;;;;;;0.80;0.80;;;;;;;19.19;79.87;94490.63;4325551;32;20221;-64
2023/08/01 04:01:33;;;;;;;0.93;0.93;;;;;;;19.17;80.27;94487.53;4321702;32;20185;-64
2023/08/01 04:03:58;;;;;;;1.27;1.17;;;;;;;19.10;81.10;94500.91;4317908;32;20182;-64
2023/08/01 04:06:23;;;;;;;0.80;0.80;;;;;;;19.11;81.27;94499.78;4335205;32;20212;-64
2023/08/01 04:08:49;;;;;;;3.17;1.17;;;;;;;19.10;81.60;94498.22;4333005;32;20182;-64
2023/08/01 04:11:15;;;;;;;0.73;0.73;;;;;;;19.15;81.58;94510.53;4343015;32;20284;-64
2023/08/01 04:13:40;;;;;;;0.60;0.60;;;;;;;19.06;82.18;94502.00;4334574;32;20229;-65
2023/08/01 04:16:05;;;;;;;0.57;0.57;;;;;;;19.04;82.45;94499.69;4341003;32;20190;-64
2023/08/01 04:18:31;;;;;;;1.50;1.37;;;;;;;19.12;81.39;94506.66;4343101;32;20216;-64
2023/08/01 04:20:56;;;;;;;0.80;0.80;;;;;;;19.09;82.77;94507.44;4356717;32;20181;-64
2023/08/01 04:23:21;;;;;;;1.60;1.50;;;;;;;19.11;83.64;94507.84;4356905;32;20199;-64
2023/08/01 04:25:47;;;;;;;1.57;1.47;;;;;;;19.07;84.14;94508.94;4349875;32;20189;-64
2023/08/01 04:28:12;;;;;;;1.43;1.33;;;;;;;18.97;85.47;94504.19;4349278;32;20181;-64
2023/08/01 04:30:38;;;;;;;0.43;0.43;;;;;;;19.02;85.66;94496.59;4343830;32;20173;-64
2023/08/01 04:33:04;;;;;;;2.63;1.20;;;;;;;18.95;86.09;94501.88;4349559;32;20200;-64
2023/08/01 04:35:29;;;;;;;0.93;0.70;;;;;;;18.89;86.45;94506.03;4343891;32;20201;-64
2023/08/01 04:37:54;;;;;;;0.53;0.53;;;;;;;18.86;87.31;94506.78;4354258;32;20189;-64
2023/08/01 04:40:20;;;;;;;3.97;1.13;;;;;;;18.79;87.71;94503.97;4349218;32;20199;-64
2023/08/01 04:42:45;;;;;;;1.00;1.00;;;;;;;18.66;89.27;94505.37;4356410;32;20192;-64
2023/08/01 04:45:10;;;;;;;0.80;0.80;;;;;;;18.51;89.61;94512.41;4353633;32;20185;-64
2023/08/01 04:47:36;;;;;;;1.20;1.13;;;;;;;18.54;89.63;94499.03;4345287;32;20189;-64
2023/08/01 04:50:01;;;;;;;1.80;1.30;;;;;;;18.59;89.72;94494.47;4348828;32;20216;-64
2023/08/01 04:52:26;;;;;;;1.57;1.47;;;;;;;18.62;89.49;94485.72;4341588;32;20185;-64
2023/08/01 04:54:52;;;;;;;1.03;1.03;;;;;;;18.63;89.57;94489.97;4354535;32;20191;-64
2023/08/01 04:57:17;;;;;;;0.70;0.70;;;;;;;18.55;90.40;94497.13;4346460;32;20185;-65
2023/08/01 04:59:42;;;;;;;1.23;1.13;;;;;;;18.56;90.36;94493.28;4340861;32;20239;-65
2023/08/01 05:02:08;;;;;;;1.20;1.20;;;;;;;18.61;90.46;94493.00;4340757;32;20190;-65
2023/08/01 05:04:33;;;;;;;1.13;1.13;;;;;;;18.38;92.67;94484.22;4340657;32;20189;-65
2023/08/01 05:06:58;;;;;;;1.37;1.27;;;;;;;18.22;92.44;94484.41;4341784;32;20169;-65
2023/08/01 05:09:24;;;;;;;2.00;1.30;;;;;;;18.28;93.43;94472.22;4343392;32;20185;-64
2023/08/01 05:11:49;;;;;;;1.20;1.17;;;;;;;18.36;93.22;94470.38;4342665;32;20360;-65
2023/08/01 05:14:14;;;;;;;0.77;0.77;;;;;;;18.42;93.61;94469.72;4356663;32;20279;-65
2023/08/01 05:16:40;;;;;;;1.50;1.50;;;;;;;18.33;94.29;94457.69;4355057;32;20181;-65
2023/08/01 05:19:05;;;;;;;0.53;0.53;;;;;;;18.45;94.15;94471.69;4340309;32;20189;-65
2023/08/01 05:21:30;;;;;;;4.03;1.33;;;;;;;18.50;94.70;94467.87;4341948;32;20269;-65
2023/08/01 05:23:56;;;;;;;1.47;1.37;;;;;;;18.50;94.45;94460.59;4355029;32;20181;-64
2023/08/01 05:26:21;;;;;;;0.73;0.73;;;;;;;18.52;94.81;94446.81;4342998;32;20196;-65
2023/08/01 05:28:46;;;;;;;1.43;1.30;;;;;;;18.46;94.95;94443.69;4341227;32;20271;-65
2023/08/01 05:31:12;;;;;;;2.37;1.67;;;;;;;18.48;94.34;94436.03;4356478;32;20310;-65
2023/08/01 05:33:37;;;;;;;0.80;0.80;;;;;;;18.48;94.83;94436.03;4340828;32;20185;-64
2023/08/01 05:36:02;;;;;;;0.73;0.73;;;;;;;18.40;94.37;94436.28;4343659;32;20184;-65
2023/08/01 05:38:28;;;;;;;1.73;1.63;;;;;;;18.48;94.29;94443.31;4353792;32;20199;-64
2023/08/01 05:40:53;;;;;;;0.70;0.70;;;;;;;18.47;93.70;94439.09;4345247;32;20176;-65
2023/08/01 05:43:18;;;;;;;1.07;1.07;;;;;;;18.30;93.47;94440.38;4356514;32;20177;-65
2023/08/01 05:45:44;;;;;;;1.57;1.50;;;;;;;18.19;93.79;94452.91;4342661;32;20267;-65
2023/08/01 05:48:10;;;;;;;1.37;1.27;;;;;;;18.26;93.85;94444.94;4351738;32;20181;-65
2023/08/01 05:50:35;;;;;;;0.97;0.97;;;;;;;18.32;94.55;94459.59;4348979;32;20203;-65
2023/08/01 05:53:01;;;;;;;0.80;0.80;;;;;;;18.19;94.77;94455.59;4349592;32;20220;-64
2023/08/01 05:55:26;;;;;;;1.60;1.40;;;;;;;18.21;94.35;94447.94;4351805;32;20173;-65
2023/08/01 05:57:52;;;;;;;1.90;1.60;;;;;;;18.12;94.99;94448.19;4344400;32;20195;-66
2023/08/01 06:00:21;;;;;;;1.37;1.27;;;;;;;18.13;94.79;94460.47;4352348;32;20204;-66
2023/08/01 06:02:46;;;;;;;0.67;0.67;;;;;;;18.15;93.86;94454.75;4344857;32;20339;-66
2023/08/01 06:05:11;;;;;;;1.57;1.57;;;;;;;18.04;94.87;94453.84;4341314;32;20217;-66
2023/08/01 06:07:37;;;;;;;1.17;1.17;;;;;;;18.08;94.64;94452.72;4353917;32;20185;-66
2023/08/01 06:10:04;;;;;;;1.03;1.03;;;;;;;18.10;94.91;94445.09;4351443;32;20177;-66
2023/08/01 06:12:29;;;;;;;2.20;1.27;;;;;;;18.13;95.40;94446.28;4354121;32;20275;-64
2023/08/01 06:14:55;;;;;;;1.07;1.07;;;;;;;18.09;94.59;94451.59;4356229;32;20196;-65
2023/08/01 06:17:20;;;;;;;3.40;1.30;;;;;;;18.02;94.95;94450.75;4347468;32;20240;-65
2023/08/01 06:19:46;;;;;;;0.53;0.53;;;;;;;18.08;94.16;94443.94;4346083;32;20196;-65
2023/08/01 06:22:11;;;;;;;0.83;0.83;;;;;;;18.14;93.78;94432.50;4342712;32;20197;-65
2023/08/01 06:24:37;;;;;;;2.47;2.27;;;;;;;18.04;93.28;94427.00;4357297;32;20181;-65
2023/08/01 06:27:02;;;;;;;0.80;0.80;;;;;;;18.06;93.28;94416.69;4351763;32;20196;-65
2023/08/01 06:29:27;;;;;;;1.33;1.23;;;;;;;18.15;91.47;94422.53;4347164;32;20236;-65
2023/08/01 06:31:53;;;;;;;0.57;0.57;;;;;;;18.13;91.72;94430.19;4341875;32;20178;-65
2023/08/01 06:34:18;;;;;;;1.10;1.10;;;;;;;18.17;92.04;94425.62;4339556;32;20181;-65
2023/08/01 06:36:43;;;;;;;1.10;1.10;;;;;;;18.12;90.95;94412.53;4342394;32;20271;-65
2023/08/01 06:39:09;;;;;;;1.20;1.20;;;;;;;18.14;89.68;94392.22;4342072;32;20181;-65
2023/08/01 06:41:34;;;;;;;0.80;0.80;;;;;;;18.21;89.85;94394.25;4345182;32;20252;-65
2023/08/01 06:43:59;;;;;;;1.10;0.90;;;;;;;18.29;89.11;94390.50;4349999;32;20181;-64
2023/08/01 06:46:25;;;;;;;1.10;1.10;;;;;;;18.20;88.45;94382.72;4341926;32;20189;-65
2023/08/01 06:48:50;;;;;;;1.20;1.10;;;;;;;18.18;88.21;94374.25;4351226;32;20256;-65
2023/08/01 06:51:15;;;;;;;0.57;0.57;;;;;;;18.24;87.40;94371.25;4345613;32;20239;-65
2023/08/01 06:53:41;;;;;;;0.70;0.70;;;;;;;18.25;86.05;94367.44;4346635;32;20188;-65
2023/08/01 06:56:06;;;;;;;1.00;0.93;;;;;;;18.31;86.28;94361.37;4341347;32;20196;-65
2023/08/01 06:58:32;;;;;;;0.90;0.90;;;;;;;18.33;84.23;94359.09;4347608;32;20228;-65
2023/08/01 07:00:57;;;;;;;1.33;1.20;;;;;;;18.27;83.56;94357.88;4355994;32;20176;-64
2023/08/01 07:03:22;;;;;;;0.70;0.70;;;;;;;18.34;83.32;94347.22;4355094;32;20415;-64
2023/08/01 07:05:48;;;;;;;2.17;1.30;;;;;;;18.39;81.46;94346.13;4354326;32;20173;-65
2023/08/01 07:08:13;;;;;;;1.20;1.00;;;;;;;18.46;81.92;94354.28;4349316;32;20173;-64
2023/08/01 07:10:39;;;;;;;1.43;1.33;;;;;;;18.40;81.32;94351.13;4341805;32;20180;-64
2023/08/01 07:13:04;;;;;;;0.40;0.40;;;;;;;18.42;79.81;94343.47;4352637;32;20208;-65
2023/08/01 07:15:30;;;;;;;0.97;0.97;;;;;;;18.39;80.09;94333.47;4342876;32;20181;-64
2023/08/01 07:17:56;;;;;;;0.60;0.60;;;;;;;18.46;80.09;94341.62;4340499;32;20196;-64
2023/08/01 07:20:22;;;;;;;1.60;0.90;;;;;;;18.52;80.35;94318.62;4349627;32;20197;-65
2023/08/01 07:22:47;;;;;;;1.03;0.73;;;;;;;18.51;80.19;94322.47;4345433;32;20181;-65
2023/08/01 07:25:13;;;;;;;0.80;0.80;;;;;;;18.53;79.74;94314.81;4340578;32;20181;-64
2023/08/01 07:27:38;;;;;;;3.73;1.53;;;;;;;18.51;78.63;94317.09;4340852;32;20181;-64
2023/08/01 07:30:05;;;;;;;1.23;1.13;;;;;;;18.57;78.72;94312.16;4346317;32;20186;-65
2023/08/01 07:32:31;;;;;;;1.30;1.20;;;;;;;18.64;78.47;94298.84;4340495;32;20177;-64
2023/08/01 07:34:56;;;;;;;1.87;1.40;;;;;;;18.67;78.30;94297.34;4339843;32;20226;-64
2023/08/01 07:37:21;;;;;;;1.03;1.00;;;;;;;18.67;77.01;94316.13;4343536;32;20173;-65
2023/08/01 07:39:47;;;;;;;0.70;0.70;;;;;;;18.72;77.51;94321.16;4348032;32;20186;-65
2023/08/01 07:42:12;;;;;;;0.77;0.77;;;;;;;18.68;77.38;94326.53;4354016;32;20216;-64
2023/08/01 07:44:37;;;;;;;1.70;1.60;;;;;;;18.66;76.65;94328.03;4353800;32;20184;-64
2023/08/01 07:47:06;;;;;;;0.80;0.80;;;;;;;18.70;76.91;94289.31;4352929;32;20177;-65
2023/08/01 07:49:31;;;;;;;0.60;0.60;;;;;;;18.75;76.13;94282.81;4344631;32;20180;-65
2023/08/01 07:51:56;;;;;;;0.93;0.93;;;;;;;18.80;75.97;94290.53;4356273;32;20199;-64
2023/08/01 07:54:23;;;;;;;0.70;0.70;;;;;;;18.89;75.82;94299.06;4355525;32;20222;-65
2023/08/01 07:56:49;;;;;;;1.10;1.10;;;;;;;18.93;76.03;94312.53;4344510;32;20174;-65
2023/08/01 07:59:15;;;;;;;1.40;1.10;;;;;;;18.98;75.18;94290.69;4344699;32;20231;-66
2023/08/01 08:01:40;;;;;;;0.70;0.70;;;;;;;19.05;76.50;94286.16;4345860;32;20260;-66
2023/08/01 08:04:06;;;;;;;0.70;0.70;;;;;;;18.99;77.81;94282.25;4342782;32;20188;-66
2023/08/01 08:06:31;;;;;;;0.77;0.77;;;;;;;19.03;79.08;94293.81;4351568;32;20557;-66
2023/08/01 08:08:56;;;;;;;1.13;1.13;;;;;;;19.08;79.07;94277.34;4355940;32;20243;-66
2023/08/01 08:11:23;;;;;;;0.70;0.70;;;;;;;19.02;79.30;94289.56;4346841;32;20204;-66
2023/08/01 08:13:48;;;;;;;5.37;1.60;;;;;;;19.01;80.17;94298.00;4349685;32;20224;-66
2023/08/01 08:16:14;;;;;;;0.50;0.50;;;;;;;18.90;80.61;94289.09;4360241;32;20201;-66
2023/08/01 08:18:39;;;;;;;0.83;0.83;;;;;;;18.98;80.99;94269.19;4355710;32;20221;-66
2023/08/01 08:21:04;;;;;;;0.63;0.63;;;;;;;19.08;81.13;94265.81;4356929;32;20193;-64
2023/08/01 08:23:30;;;;;;;0.40;0.40;;;;;;;19.10;79.71;94267.00;4349890;32;20185;-65
2023/08/01 08:25:55;;;;;;;0.63;0.63;;;;;;;19.19;79.65;94323.91;4351995;32;20355;-64
2023/08/01 08:28:32;;;;;;;0.90;0.90;;;;;;;19.31;80.16;94309.41;4362083;32;20228;-65
2023/08/01 08:30:58;;;;;;;0.80;0.80;;;;;;;19.45;79.44;94316.78;4352158;32;20294;-64
2023/08/01 08:33:23;;;;;;;0.90;0.90;;;;;;;19.43;78.31;94305.63;4360003;32;20255;-65
2023/08/01 08:35:49;;;;;;;2.70;1.30;;;;;;;19.42;78.15;94312.16;4351437;32;20181;-65
2023/08/01 08:38:15;;;;;;;2.67;0.80;;;;;;;19.55;78.96;94319.56;4356438;32;20177;-65
2023/08/01 08:40:43;;;;;;;0.73;0.73;;;;;;;19.61;79.24;94321.91;4345503;32;20208;-65
2023/08/01 08:43:09;;;;;;;0.90;0.90;;;;;;;19.65;78.98;94310.03;4340148;32;20260;-65
2023/08/01 08:45:41;;;;;;;0.80;0.67;;;;;;;19.68;78.88;94311.97;4337907;32;20186;-65
2023/08/01 08:48:12;;;;;;;0.60;0.60;;;;;;;19.74;78.42;94315.87;4335392;32;20249;-67
2023/08/01 08:50:39;;;;;;;1.07;1.07;;;;;;;19.76;78.37;94316.22;4352247;32;20247;-64
2023/08/01 08:53:12;;;;;;;1.47;1.10;;;;;;;19.74;78.42;94317.78;4343311;32;20184;-65
2023/08/01 08:55:38;;;;;;;1.27;1.27;;;;;;;19.79;78.78;94326.25;4346933;32;20247;-65
2023/08/01 08:58:04;;;;;;;1.03;1.03;;;;;;;19.83;79.01;94339.72;4349389;32;20267;-65
2023/08/01 09:00:30;;;;;;;1.27;1.17;;;;;;;19.79;77.71;94342.41;4344771;32;20189;-65
2023/08/01 09:02:55;;;;;;;1.00;1.00;;;;;;;19.88;77.57;94342.06;4340880;32;20185;-65
2023/08/01 09:05:26;;;;;;;1.20;1.10;;;;;;;19.90;77.20;94348.62;4347149;32;20178;-65
2023/08/01 09:07:56;;;;;;;1.03;0.70;;;;;;;19.95;78.11;94346.75;4344693;32;20199;-65
2023/08/01 09:10:22;;;;;;;0.57;0.57;;;;;;;19.90;76.40;94337.87;4348596;32;20199;-65
2023/08/01 09:12:47;;;;;;;1.53;1.43;;;;;;;19.93;77.56;94333.66;4355648;32;20189;-65
2023/08/01 09:15:13;;;;;;;1.23;1.20;;;;;;;19.92;75.38;94336.72;4354286;32;20240;-65
2023/08/01 09:17:53;;;;;;;1.57;1.47;;;;;;;19.98;75.23;94329.81;4340554;32;20243;-65
2023/08/01 09:20:18;;;;;;;0.77;0.77;;;;;;;19.88;75.41;94320.53;4342646;32;20184;-65
2023/08/01 09:22:45;;;;;;;0.60;0.60;;;;;;;19.90;76.03;94313.63;4341720;32;20212;-65
2023/08/01 09:25:11;;;;;;;0.70;0.70;;;;;;;19.95;75.12;94314.44;4336475;32;20257;-65
2023/08/01 09:27:37;;;;;;;0.60;0.60;;;;;;;19.98;74.38;94316.34;4344900;32;20184;-65
2023/08/01 09:30:11;;;;;;;0.50;0.50;;;;;;;19.93;76.08;94338.25;4352210;32;20295;-65
2023/08/01 09:32:37;;;;;;;1.00;1.00;;;;;;;19.99;76.10;94347.50;4340248;32;20177;-65
2023/08/01 09:35:03;;;;;;;1.53;1.43;;;;;;;20.08;76.51;94342.56;4350682;32;20229;-65
2023/08/01 09:37:40;;;;;;;0.87;0.87;;;;;;;20.12;74.50;94365.69;4344021;32;20239;-65
2023/08/01 09:40:06;;;;;;;1.63;1.53;;;;;;;20.12;74.86;94367.59;4346253;32;20185;-65
2023/08/01 09:42:38;;;;;;;1.03;1.03;;;;;;;20.14;75.52;94365.31;4337233;32;20244;-65
2023/08/01 09:45:15;;;;;;;1.07;1.07;;;;;;;20.06;77.09;94361.78;4341761;32;20182;-65
2023/08/01 09:47:46;;;;;;;2.87;1.17;;;;;;;20.02;77.05;94360.22;4337128;32;20177;-65
2023/08/01 09:50:19;;;;;;;0.70;0.70;;;;;;;20.07;76.28;94365.25;4352252;32;20252;-65
2023/08/01 09:52:52;;;;;;;2.17;1.03;;;;;;;19.98;75.48;94351.34;4342010;32;20200;-65
2023/08/01 09:55:17;;;;;;;1.73;1.33;;;;;;;19.99;75.99;94358.28;4344352;32;20215;-65
2023/08/01 09:57:48;;;;;;;0.87;0.87;;;;;;;19.94;75.62;94358.66;4335953;32;20228;-65
2023/08/01 10:00:14;;;;;;;1.20;1.17;;;;;;;19.97;75.10;94353.25;4344482;32;20197;-65
2023/08/01 10:02:43;;;;;;;1.13;1.10;;;;;;;19.92;73.45;94369.03;4318320;32;20238;-65
2023/08/01 10:05:10;;;;;;;1.17;0.70;;;;;;;20.01;72.08;94366.75;4332104;32;20189;-65
2023/08/01 10:07:40;;;;;;;0.83;0.83;;;;;;;19.93;72.57;94376.72;4336329;32;20253;-65
2023/08/01 10:10:06;;;;;;;0.60;0.60;;;;;;;19.83;72.36;94367.44;4350823;32;20228;-65
2023/08/01 10:12:32;;;;;;;2.13;1.40;;;;;;;19.66;74.14;94397.69;4338111;32;20259;-65
2023/08/01 10:14:58;;;;;;;0.53;0.53;;;;;;;19.62;74.74;94394.19;4339329;32;20231;-65
2023/08/01 10:17:25;;;;;;;1.57;1.40;;;;;;;19.54;74.73;94397.97;4341280;32;20217;-65
2023/08/01 10:19:51;;;;;;;0.63;0.63;;;;;;;19.51;74.17;94414.87;4349803;32;20182;-65
2023/08/01 10:22:17;;;;;;;0.97;0.97;;;;;;;19.55;74.24;94397.59;4335670;32;20291;-65
2023/08/01 10:24:44;;;;;;;0.60;0.60;;;;;;;19.58;74.84;94398.00;4355631;32;20247;-65
2023/08/01 10:27:14;;;;;;;0.97;0.90;;;;;;;19.50;74.90;94391.81;4338155;32;20186;-65
2023/08/01 10:29:39;;;;;;;1.10;1.10;;;;;;;19.58;74.57;94404.16;4343136;32;20213;-65
2023/08/01 10:32:07;;;;;;;0.73;0.73;;;;;;;19.71;73.25;94408.13;4334014;32;20226;-65
2023/08/01 10:34:33;;;;;;;1.03;1.03;;;;;;;19.74;74.35;94401.22;4342112;32;20186;-64
2023/08/01 10:36:59;;;;;;;1.73;0.87;;;;;;;19.71;74.43;94391.97;4339251;32;20215;-64
2023/08/01 10:39:26;;;;;;;1.37;1.27;;;;;;;19.74;74.97;94388.53;4337455;32;20169;-65
2023/08/01 10:42:00;;;;;;;1.07;0.93;;;;;;;19.63;74.22;94392.28;4353787;32;20226;-64
2023/08/01 10:44:25;;;;;;;0.40;0.40;;;;;;;19.65;74.32;94382.69;4339948;32;20260;-65
2023/08/01 10:47:01;;;;;;;0.70;0.70;;;;;;;19.73;74.10;94373.53;4344844;32;20173;-65
2023/08/01 10:49:42;;;;;;;0.43;0.43;;;;;;;19.64;74.86;94381.13;4331300;32;20177;-65
2023/08/01 10:52:27;;;;;;;1.07;1.07;;;;;;;19.46;76.67;94348.69;4350339;32;20190;-65
2023/08/01 10:55:11;;;;;;;0.60;0.60;;;;;;;19.39;77.94;94375.53;4347423;32;20205;-65
2023/08/01 10:57:48;;;;;;;0.80;0.80;;;;;;;19.27;80.77;94367.00;4349694;32;20193;-65
2023/08/01 11:00:17;;;;;;;0.93;0.93;;;;;;;19.17;80.85;94377.28;4329708;32;20220;-65
2023/08/01 11:02:42;;;;;;;1.27;1.27;;;;;;;19.10;81.57;94355.72;4352012;32;20250;-64
2023/08/01 11:05:08;;;;;;;0.43;0.43;;;;;;;19.12;81.79;94358.78;4351388;32;20216;-65
2023/08/01 11:07:34;;;;;;;1.00;1.00;;;;;;;19.07;80.43;94342.25;4344531;32;20228;-65
2023/08/01 11:10:11;;;;;;;7.43;1.23;;;;;;;19.08;79.83;94323.03;4348795;32;20177;-65
2023/08/01 11:12:38;;;;;;;0.50;0.50;;;;;;;19.22;80.32;94323.16;4338238;32;20208;-64
2023/08/01 11:15:08;;;;;;;0.77;0.77;;;;;;;19.09;79.57;94340.72;4340591;32;20223;-66
2023/08/01 11:17:35;;;;;;;0.30;0.30;;;;;;;18.96;79.51;94330.59;4347332;32;20222;-64
2023/08/01 11:20:03;;;;;;;0.90;0.90;;;;;;;18.91;80.86;94360.53;4349265;32;20235;-64
2023/08/01 11:22:28;;;;;;;0.47;0.47;;;;;;;18.84;82.28;94369.28;4344432;32;20256;-64
2023/08/01 11:24:53;;;;;;;0.60;0.60;;;;;;;18.87;82.77;94349.72;4340630;32;20217;-64
2023/08/01 11:27:18;;;;;;;0.57;0.57;;;;;;;18.85;83.24;94354.72;4335048;32;20269;-65
2023/08/01 11:29:44;;;;;;;1.63;0.70;;;;;;;18.83;83.36;94359.69;4337771;32;20212;-65